createdAt,value
2022-10-04T00:04:35.860Z,9.20
2022-10-04T00:09:55.909Z,9.00
2022-10-04T00:15:07.154Z,9.00
2022-10-04T00:20:54.438Z,9.10
2022-10-04T00:26:05.642Z,9.10
2022-10-04T00:31:30.200Z,9.00
2022-10-04T00:36:56.199Z,8.80
2022-10-04T00:42:37.079Z,9.50
2022-10-04T00:48:01.112Z,9.20
2022-10-04T00:53:19.632Z,9.10
2022-10-04T00:58:35.242Z,9.00
2022-10-04T01:03:46.299Z,9.00
2022-10-04T01:08:56.998Z,9.20
2022-10-04T01:14:23.477Z,9.00
2022-10-04T01:19:36.048Z,9.20
2022-10-04T01:24:46.342Z,9.00
2022-10-04T01:29:55.007Z,9.10
2022-10-04T01:35:01.661Z,9.00
2022-10-04T01:40:11.727Z,9.10
2022-10-04T01:45:28.958Z,9.00
2022-10-04T01:50:42.914Z,9.10
2022-10-04T01:55:56.547Z,9.00
2022-10-04T02:01:10.914Z,9.20
2022-10-04T02:06:19.606Z,9.10
2022-10-04T02:11:30.492Z,9.10
2022-10-04T02:16:40.383Z,8.90
2022-10-04T02:21:50.369Z,8.80
2022-10-04T02:26:57.999Z,8.80
2022-10-04T02:32:25.869Z,8.80
2022-10-04T02:37:32.684Z,8.80
2022-10-04T02:43:04.814Z,8.50
2022-10-04T02:48:38.059Z,8.70
2022-10-04T02:54:03.675Z,8.20
2022-10-04T02:59:19.632Z,8.10
2022-10-04T03:04:29.762Z,8.10
2022-10-04T03:09:38.657Z,8.00
2022-10-04T03:14:46.016Z,8.00
2022-10-04T03:19:54.116Z,8.10
2022-10-04T03:25:02.428Z,8.10
2022-10-04T03:30:14.699Z,8.10
2022-10-04T03:35:38.122Z,8.10
2022-10-04T03:40:50.899Z,7.90
2022-10-04T03:45:58.841Z,7.80
2022-10-04T03:51:08.717Z,7.90
2022-10-04T03:56:25.579Z,7.80
2022-10-04T04:01:47.399Z,7.70
2022-10-04T04:07:03.807Z,7.70
2022-10-04T04:12:27.776Z,7.70
2022-10-04T04:17:42.911Z,7.90
2022-10-04T04:23:12.031Z,7.80
2022-10-04T04:28:38.269Z,7.80
2022-10-04T04:34:06.717Z,8.10
2022-10-04T04:39:36.885Z,7.80
2022-10-04T04:45:08.398Z,7.80
2022-10-04T04:50:22.482Z,8.00
2022-10-04T04:55:50.095Z,7.90
2022-10-04T05:00:43.498Z,7.70
2022-10-04T05:05:52.026Z,7.80
2022-10-04T05:11:16.977Z,7.90
2022-10-04T05:16:46.569Z,8.00
2022-10-04T05:21:56.707Z,8.00
2022-10-04T05:27:07.432Z,7.90
2022-10-04T05:32:30.679Z,8.00
2022-10-04T05:38:07.443Z,8.00
2022-10-04T05:43:33.770Z,8.10
2022-10-04T05:48:43.904Z,8.20
2022-10-04T05:53:51.942Z,8.10
2022-10-04T05:59:35.453Z,8.00
2022-10-04T06:05:18.213Z,8.10
2022-10-04T06:10:41.308Z,8.20
2022-10-04T06:16:13.612Z,8.30
2022-10-04T06:21:24.764Z,8.30
2022-10-04T06:26:35.929Z,8.30
2022-10-04T06:32:04.835Z,8.30
2022-10-04T06:37:42.401Z,8.20
2022-10-04T06:43:28.329Z,8.30
2022-10-04T06:49:00.438Z,8.40
2022-10-04T06:54:25.121Z,8.60
2022-10-04T06:59:39.801Z,8.70
2022-10-04T07:05:16.690Z,8.90
2022-10-04T07:10:33.745Z,9.10
2022-10-04T07:16:07.015Z,9.00
2022-10-04T07:21:19.152Z,8.90
2022-10-04T07:26:42.306Z,9.00
2022-10-04T07:32:06.201Z,9.20
2022-10-04T07:37:15.969Z,9.30
2022-10-04T07:43:00.676Z,9.50
2022-10-04T07:48:27.246Z,9.60
2022-10-04T07:54:06.558Z,9.80
2022-10-04T07:59:43.417Z,10.00
2022-10-04T08:05:26.441Z,9.70
2022-10-04T08:10:57.713Z,9.80
2022-10-04T08:16:09.045Z,9.90
2022-10-04T08:21:27.411Z,10.00
2022-10-04T08:27:16.568Z,10.10
2022-10-04T08:32:44.040Z,10.30
2022-10-04T08:38:31.660Z,10.70
2022-10-04T08:44:20.625Z,11.40
2022-10-04T08:50:11.988Z,11.90
2022-10-04T08:55:45.357Z,12.00
2022-10-04T09:01:26.620Z,12.50
2022-10-04T09:07:21.657Z,13.00
2022-10-04T09:13:22.591Z,13.00
2022-10-04T09:19:12.741Z,13.40
2022-10-04T09:24:43.592Z,13.20
2022-10-04T09:30:26.446Z,13.20
2022-10-04T09:35:46.578Z,13.10
2022-10-04T09:41:35.426Z,13.20
2022-10-04T09:47:07.789Z,13.60
2022-10-04T09:52:40.786Z,13.70
2022-10-04T09:58:13.787Z,13.90
2022-10-04T10:03:36.213Z,14.30
2022-10-04T10:09:05.361Z,14.50
2022-10-04T10:14:37.373Z,14.60
2022-10-04T10:20:23.241Z,14.30
2022-10-04T10:26:17.011Z,14.80
2022-10-04T10:32:02.571Z,14.90
2022-10-04T10:37:33.336Z,14.80
2022-10-04T10:43:00.079Z,15.00
2022-10-04T10:48:38.385Z,15.40
2022-10-04T10:54:21.657Z,15.40
2022-10-04T11:00:05.980Z,15.50
2022-10-04T11:06:02.009Z,15.30
2022-10-04T11:12:01.785Z,15.20
2022-10-04T11:17:32.481Z,15.80
2022-10-04T11:23:05.738Z,15.70
2022-10-04T11:28:48.742Z,15.70
2022-10-04T11:34:16.779Z,15.40
2022-10-04T11:39:47.645Z,15.10
2022-10-04T11:45:32.037Z,15.00
2022-10-04T11:50:45.747Z,15.20
2022-10-04T11:56:32.367Z,14.90
2022-10-04T12:02:04.264Z,15.20
2022-10-04T12:07:31.725Z,15.40
2022-10-04T12:13:16.151Z,15.30
2022-10-04T12:18:39.250Z,15.60
2022-10-04T12:23:59.030Z,15.60
2022-10-04T12:29:22.012Z,15.90
2022-10-04T12:34:37.098Z,15.70
2022-10-04T12:40:03.173Z,16.00
2022-10-04T12:45:41.444Z,15.70
2022-10-04T12:51:32.783Z,16.00
2022-10-04T12:57:01.171Z,16.20
2022-10-04T13:02:56.140Z,16.10
2022-10-04T13:08:22.143Z,16.20
2022-10-04T13:13:45.071Z,15.80
2022-10-04T13:19:09.578Z,15.80
2022-10-04T13:24:24.500Z,15.70
2022-10-04T13:29:44.535Z,15.70
2022-10-04T13:35:07.437Z,15.70
2022-10-04T13:40:56.593Z,15.80
2022-10-04T13:46:25.367Z,16.10
2022-10-04T13:51:54.205Z,15.70
2022-10-04T13:57:22.970Z,15.70
2022-10-04T14:02:39.759Z,15.50
2022-10-04T14:08:11.789Z,15.60
2022-10-04T14:13:43.603Z,15.50
2022-10-04T14:19:17.641Z,15.30
2022-10-04T14:24:42.911Z,15.10
2022-10-04T14:30:07.694Z,15.40
2022-10-04T14:35:29.537Z,15.20
2022-10-04T14:40:43.566Z,15.20
2022-10-04T14:46:39.644Z,15.00
2022-10-04T14:52:25.635Z,15.20
2022-10-04T14:58:21.705Z,14.90
2022-10-04T15:03:55.827Z,14.90
2022-10-04T15:09:21.423Z,14.70
2022-10-04T15:15:15.187Z,14.30
2022-10-04T15:20:57.586Z,14.40
2022-10-04T15:26:26.695Z,14.30
2022-10-04T15:32:07.069Z,14.30
2022-10-04T15:37:22.974Z,14.20
2022-10-04T15:42:38.686Z,14.10
2022-10-04T15:47:59.297Z,14.00
2022-10-04T15:54:00.298Z,13.80
2022-10-04T15:59:21.175Z,13.70
2022-10-04T16:05:04.163Z,13.60
2022-10-04T16:10:34.426Z,13.60
2022-10-04T16:16:19.999Z,13.30
2022-10-04T16:21:50.676Z,13.20
2022-10-04T16:27:08.940Z,13.00
2022-10-04T16:32:27.388Z,12.70
2022-10-04T16:38:16.501Z,12.50
2022-10-04T16:43:32.024Z,12.40
2022-10-04T16:48:57.529Z,12.20
2022-10-04T16:54:58.693Z,12.10
2022-10-04T17:00:39.676Z,12.00
2022-10-04T17:06:06.234Z,11.90
2022-10-04T17:11:36.484Z,11.80
2022-10-04T17:16:58.286Z,11.70
2022-10-04T17:22:29.472Z,11.50
2022-10-04T17:27:58.641Z,11.30
2022-10-04T17:33:37.893Z,11.00
2022-10-04T17:39:09.617Z,11.10
2022-10-04T17:44:38.942Z,11.00
2022-10-04T17:50:13.186Z,10.90
2022-10-04T17:55:26.362Z,10.90
2022-10-04T18:00:53.878Z,10.90
2022-10-04T18:06:05.506Z,10.80
2022-10-04T18:11:35.737Z,10.70
2022-10-04T18:17:13.441Z,10.40
2022-10-04T18:22:25.337Z,10.50
2022-10-04T18:27:36.297Z,10.70
2022-10-04T18:32:53.121Z,10.50
2022-10-04T18:38:25.984Z,10.30
2022-10-04T18:43:54.643Z,10.40
2022-10-04T18:49:25.481Z,10.40
2022-10-04T18:54:56.432Z,10.30
2022-10-04T19:00:30.963Z,10.30
2022-10-04T19:06:03.378Z,10.20
2022-10-04T19:11:26.672Z,10.30
2022-10-04T19:16:55.921Z,10.20
2022-10-04T19:22:19.060Z,9.90
2022-10-04T19:27:40.242Z,10.00
2022-10-04T19:33:28.007Z,10.00
2022-10-04T19:38:57.174Z,9.90
2022-10-04T19:44:16.680Z,10.10
2022-10-04T19:49:48.753Z,10.00
2022-10-04T19:55:12.341Z,10.00
2022-10-04T20:00:20.498Z,9.90
2022-10-04T20:05:29.353Z,10.10
2022-10-04T20:10:39.588Z,10.00
2022-10-04T20:15:51.372Z,9.90
2022-10-04T20:21:04.027Z,9.80
2022-10-04T20:26:55.847Z,9.70
2022-10-04T20:32:04.487Z,9.60
2022-10-04T20:37:14.312Z,9.50
2022-10-04T20:42:37.810Z,9.50
2022-10-04T20:48:02.597Z,9.70
2022-10-04T20:53:30.563Z,9.80
2022-10-04T20:58:38.176Z,9.70
2022-10-04T21:03:48.411Z,9.80
2022-10-04T21:08:55.694Z,9.60
2022-10-04T21:14:02.890Z,9.60
2022-10-04T21:19:40.753Z,9.40
2022-10-04T21:25:00.662Z,9.50
2022-10-04T21:30:21.136Z,9.30
2022-10-04T21:35:28.588Z,9.30
2022-10-04T21:40:38.803Z,9.30
2022-10-04T21:45:46.183Z,9.40
2022-10-04T21:50:57.992Z,9.20
2022-10-04T21:56:07.738Z,9.20
2022-10-04T22:01:16.524Z,9.20
2022-10-04T22:06:23.713Z,9.20
2022-10-04T22:11:31.601Z,9.20
2022-10-04T22:16:39.493Z,9.20
2022-10-04T22:21:47.177Z,9.20
2022-10-04T22:26:53.873Z,9.10
2022-10-04T22:32:01.337Z,9.10
2022-10-04T22:37:15.534Z,8.90
2022-10-04T22:42:23.736Z,8.90
2022-10-04T22:47:33.102Z,8.90
2022-10-04T22:52:41.802Z,9.10
2022-10-04T22:57:51.366Z,9.20
2022-10-04T23:02:58.873Z,9.10
2022-10-04T23:08:07.197Z,9.20
2022-10-04T23:13:15.132Z,9.20
2022-10-04T23:18:27.394Z,8.90
2022-10-04T23:23:35.542Z,8.80
2022-10-04T23:28:42.427Z,8.90
2022-10-04T23:33:49.381Z,8.90
2022-10-04T23:39:01.728Z,8.70
2022-10-04T23:44:16.967Z,8.60
2022-10-04T23:49:25.235Z,8.70
2022-10-04T23:54:35.601Z,8.60
2022-10-04T23:59:45.504Z,8.70
